Aviation Digital Data Service (ADDS)

Output produced by TAFs form (0028 UTC 23 October 2017)
found at http://www.aviationweather.gov/adds/tafs/
 
KAPA 222353Z 11005KT 10SM FEW100 BKN140 BKN200 16/M06 A3013 RMK AO2 SLP183 T01611061 10189 20161 55005 $
KAPA 222338Z 2300/2324 26007KT P6SM SCT100 BKN140 BKN220 
     FM230300 23010KT P6SM BKN220 
     FM230500 20010KT P6SM SCT220 
     FM231500 01008KT P6SM FEW060 SCT220 
     FM231800 05008KT P6SM SCT070 SCT220 
     FM232330 03013KT P6SM BKN050 BKN220